sensor_id;sensor_type;location;lat;lon;timestamp;pressure;altitude;pressure_sealevel;temperature;humidity
63819;BME280;49970;54.976;73.248;2023-04-27T00:00:48;100720.66;;;15.90;47.86
63819;BME280;49970;54.976;73.248;2023-04-27T00:03:15;100720.66;;;15.90;48.09
63819;BME280;49970;54.976;73.248;2023-04-27T00:05:41;100724.84;;;15.92;47.89
63819;BME280;49970;54.976;73.248;2023-04-27T00:08:07;100721.34;;;15.92;47.81
63819;BME280;49970;54.976;73.248;2023-04-27T00:10:34;100718.81;;;15.90;47.71
63819;BME280;49970;54.976;73.248;2023-04-27T00:13:00;100713.91;;;15.96;47.79
63819;BME280;49970;54.976;73.248;2023-04-27T00:15:31;100722.50;;;15.99;47.66
63819;BME280;49970;54.976;73.248;2023-04-27T00:17:58;100723.09;;;16.03;47.64
63819;BME280;49970;54.976;73.248;2023-04-27T00:20:31;100723.78;;;16.05;47.56
63819;BME280;49970;54.976;73.248;2023-04-27T00:23:04;100722.84;;;16.06;47.65
63819;BME280;49970;54.976;73.248;2023-04-27T00:25:30;100718.06;;;16.09;47.63
63819;BME280;49970;54.976;73.248;2023-04-27T00:28:01;100717.19;;;16.09;47.55
63819;BME280;49970;54.976;73.248;2023-04-27T00:30:28;100726.94;;;16.10;47.79
63819;BME280;49970;54.976;73.248;2023-04-27T00:32:54;100727.19;;;16.07;47.54
63819;BME280;49970;54.976;73.248;2023-04-27T00:35:20;100714.81;;;16.06;47.93
63819;BME280;49970;54.976;73.248;2023-04-27T00:37:46;100722.00;;;16.05;47.89
63819;BME280;49970;54.976;73.248;2023-04-27T00:40:13;100728.19;;;16.06;47.84
63819;BME280;49970;54.976;73.248;2023-04-27T00:42:48;100726.47;;;16.05;48.06
63819;BME280;49970;54.976;73.248;2023-04-27T00:45:20;100722.41;;;16.10;48.00
63819;BME280;49970;54.976;73.248;2023-04-27T00:47:46;100719.34;;;16.15;47.70
63819;BME280;49970;54.976;73.248;2023-04-27T00:50:13;100719.09;;;16.18;47.51
63819;BME280;49970;54.976;73.248;2023-04-27T00:52:39;100711.34;;;16.25;47.60
63819;BME280;49970;54.976;73.248;2023-04-27T00:55:11;100722.22;;;16.33;47.61
63819;BME280;49970;54.976;73.248;2023-04-27T00:57:43;100718.03;;;16.40;47.20
63819;BME280;49970;54.976;73.248;2023-04-27T01:00:10;100721.84;;;16.47;47.18
63819;BME280;49970;54.976;73.248;2023-04-27T01:02:36;100715.94;;;16.53;47.03
63819;BME280;49970;54.976;73.248;2023-04-27T01:05:03;100726.78;;;16.61;46.91
63819;BME280;49970;54.976;73.248;2023-04-27T01:07:39;100725.53;;;16.65;46.67
63819;BME280;49970;54.976;73.248;2023-04-27T01:10:06;100724.03;;;16.73;46.58
63819;BME280;49970;54.976;73.248;2023-04-27T01:12:34;100729.66;;;16.79;46.59
63819;BME280;49970;54.976;73.248;2023-04-27T01:15:13;100722.78;;;16.86;46.44
63819;BME280;49970;54.976;73.248;2023-04-27T01:17:39;100718.84;;;16.90;46.35
63819;BME280;49970;54.976;73.248;2023-04-27T01:20:15;100725.44;;;16.96;46.51
63819;BME280;49970;54.976;73.248;2023-04-27T01:22:42;100724.19;;;17.00;46.40
63819;BME280;49970;54.976;73.248;2023-04-27T01:25:18;100723.06;;;17.03;46.45
63819;BME280;49970;54.976;73.248;2023-04-27T01:27:48;100726.00;;;17.09;46.75
63819;BME280;49970;54.976;73.248;2023-04-27T01:30:15;100725.72;;;17.22;46.77
63819;BME280;49970;54.976;73.248;2023-04-27T01:32:41;100728.53;;;17.40;46.64
63819;BME280;49970;54.976;73.248;2023-04-27T01:35:17;100729.50;;;17.58;46.54
63819;BME280;49970;54.976;73.248;2023-04-27T01:37:43;100723.69;;;17.82;45.77
63819;BME280;49970;54.976;73.248;2023-04-27T01:40:10;100716.81;;;18.07;45.74
63819;BME280;49970;54.976;73.248;2023-04-27T01:42:36;100716.22;;;18.13;45.67
63819;BME280;49970;54.976;73.248;2023-04-27T01:45:08;100721.91;;;18.10;45.43
63819;BME280;49970;54.976;73.248;2023-04-27T01:47:35;100723.72;;;18.10;45.77
63819;BME280;49970;54.976;73.248;2023-04-27T01:50:01;100721.59;;;18.13;45.86
63819;BME280;49970;54.976;73.248;2023-04-27T01:52:27;100720.28;;;18.17;45.43
63819;BME280;49970;54.976;73.248;2023-04-27T01:55:05;100722.84;;;18.19;45.65
63819;BME280;49970;54.976;73.248;2023-04-27T01:57:41;100727.22;;;18.20;45.73
63819;BME280;49970;54.976;73.248;2023-04-27T02:00:13;100725.53;;;18.19;45.76
63819;BME280;49970;54.976;73.248;2023-04-27T02:02:48;100732.03;;;18.16;45.90
63819;BME280;49970;54.976;73.248;2023-04-27T02:05:18;100734.31;;;18.11;45.94
63819;BME280;49970;54.976;73.248;2023-04-27T02:07:56;100729.38;;;18.07;45.97
63819;BME280;49970;54.976;73.248;2023-04-27T02:10:22;100728.56;;;18.06;46.19
63819;BME280;49970;54.976;73.248;2023-04-27T02:12:53;100718.94;;;18.04;45.88
63819;BME280;49970;54.976;73.248;2023-04-27T02:15:22;100729.97;;;18.01;45.99
63819;BME280;49970;54.976;73.248;2023-04-27T02:17:53;100725.59;;;18.00;46.13
63819;BME280;49970;54.976;73.248;2023-04-27T02:20:19;100715.44;;;18.03;46.00
63819;BME280;49970;54.976;73.248;2023-04-27T02:22:46;100724.31;;;18.04;45.83
63819;BME280;49970;54.976;73.248;2023-04-27T02:25:13;100723.88;;;18.08;46.02
63819;BME280;49970;54.976;73.248;2023-04-27T02:27:41;100740.22;;;18.15;46.04
63819;BME280;49970;54.976;73.248;2023-04-27T02:30:13;100728.75;;;18.23;46.30
63819;BME280;49970;54.976;73.248;2023-04-27T02:32:39;100728.00;;;18.30;45.81
63819;BME280;49970;54.976;73.248;2023-04-27T02:35:10;100736.75;;;18.32;45.95
63819;BME280;49970;54.976;73.248;2023-04-27T02:37:41;100734.75;;;18.34;46.12
63819;BME280;49970;54.976;73.248;2023-04-27T02:40:08;100737.31;;;18.36;45.95
63819;BME280;49970;54.976;73.248;2023-04-27T02:42:35;100732.63;;;18.38;46.06
63819;BME280;49970;54.976;73.248;2023-04-27T02:45:09;100738.38;;;18.43;45.80
63819;BME280;49970;54.976;73.248;2023-04-27T02:47:35;100739.31;;;18.52;45.51
63819;BME280;49970;54.976;73.248;2023-04-27T02:50:11;100740.78;;;18.64;45.76
63819;BME280;49970;54.976;73.248;2023-04-27T02:52:38;100733.28;;;18.77;45.23
63819;BME280;49970;54.976;73.248;2023-04-27T02:55:14;100727.91;;;18.95;45.40
63819;BME280;49970;54.976;73.248;2023-04-27T02:57:41;100725.22;;;19.13;45.08
63819;BME280;49970;54.976;73.248;2023-04-27T03:00:08;100728.75;;;19.31;44.77
63819;BME280;49970;54.976;73.248;2023-04-27T03:02:35;100716.78;;;19.52;44.81
63819;BME280;49970;54.976;73.248;2023-04-27T03:05:05;100723.69;;;19.72;44.49
63819;BME280;49970;54.976;73.248;2023-04-27T03:07:31;100710.69;;;19.94;44.04
63819;BME280;49970;54.976;73.248;2023-04-27T03:09:58;100712.16;;;20.14;43.79
63819;BME280;49970;54.976;73.248;2023-04-27T03:12:24;100712.56;;;20.35;43.61
63819;BME280;49970;54.976;73.248;2023-04-27T03:14:51;100702.41;;;20.55;42.97
63819;BME280;49970;54.976;73.248;2023-04-27T03:17:17;100719.44;;;20.72;42.84
63819;BME280;49970;54.976;73.248;2023-04-27T03:19:47;100707.69;;;20.89;42.12
63819;BME280;49970;54.976;73.248;2023-04-27T03:22:15;100716.47;;;21.08;41.61
63819;BME280;49970;54.976;73.248;2023-04-27T03:24:52;100710.91;;;21.26;41.10
63819;BME280;49970;54.976;73.248;2023-04-27T03:27:18;100701.69;;;21.36;40.90
63819;BME280;49970;54.976;73.248;2023-04-27T03:29:44;100702.00;;;21.50;40.77
63819;BME280;49970;54.976;73.248;2023-04-27T03:32:10;100706.56;;;21.57;40.60
63819;BME280;49970;54.976;73.248;2023-04-27T03:34:37;100698.91;;;21.69;39.92
63819;BME280;49970;54.976;73.248;2023-04-27T03:37:03;100701.94;;;21.82;39.78
63819;BME280;49970;54.976;73.248;2023-04-27T03:39:29;100697.69;;;21.96;39.94
63819;BME280;49970;54.976;73.248;2023-04-27T03:42:01;100695.81;;;22.13;40.13
63819;BME280;49970;54.976;73.248;2023-04-27T03:44:27;100693.06;;;22.21;39.52
63819;BME280;49970;54.976;73.248;2023-04-27T03:46:55;100682.94;;;22.23;39.45
63819;BME280;49970;54.976;73.248;2023-04-27T03:49:21;100691.41;;;22.20;39.13
63819;BME280;49970;54.976;73.248;2023-04-27T03:51:48;100681.13;;;22.16;38.84
63819;BME280;49970;54.976;73.248;2023-04-27T03:54:14;100685.00;;;22.13;38.95
63819;BME280;49970;54.976;73.248;2023-04-27T03:56:40;100672.66;;;22.10;39.19
63819;BME280;49970;54.976;73.248;2023-04-27T03:59:11;100675.75;;;22.07;38.85
63819;BME280;49970;54.976;73.248;2023-04-27T04:01:42;100680.09;;;22.08;38.82
63819;BME280;49970;54.976;73.248;2023-04-27T04:04:08;100672.53;;;22.04;38.98
63819;BME280;49970;54.976;73.248;2023-04-27T04:06:36;100669.66;;;22.05;38.89
63819;BME280;49970;54.976;73.248;2023-04-27T04:09:02;100674.03;;;22.06;39.07
63819;BME280;49970;54.976;73.248;2023-04-27T04:11:29;100674.72;;;22.08;39.07
63819;BME280;49970;54.976;73.248;2023-04-27T04:13:58;100678.59;;;22.14;38.45
63819;BME280;49970;54.976;73.248;2023-04-27T04:16:24;100675.56;;;22.17;38.49
63819;BME280;49970;54.976;73.248;2023-04-27T04:18:52;100675.38;;;22.19;38.69
63819;BME280;49970;54.976;73.248;2023-04-27T04:21:18;100675.03;;;22.22;38.73
63819;BME280;49970;54.976;73.248;2023-04-27T04:23:44;100675.16;;;22.28;38.40
63819;BME280;49970;54.976;73.248;2023-04-27T04:26:11;100680.19;;;22.31;38.70
63819;BME280;49970;54.976;73.248;2023-04-27T04:28:43;100677.44;;;22.40;38.57
63819;BME280;49970;54.976;73.248;2023-04-27T04:31:10;100676.75;;;22.46;38.25
63819;BME280;49970;54.976;73.248;2023-04-27T04:33:44;100663.22;;;22.54;38.52
63819;BME280;49970;54.976;73.248;2023-04-27T04:36:10;100672.09;;;22.62;37.93
63819;BME280;49970;54.976;73.248;2023-04-27T04:38:37;100674.56;;;22.72;37.99
63819;BME280;49970;54.976;73.248;2023-04-27T04:41:04;100668.91;;;22.82;37.95
63819;BME280;49970;54.976;73.248;2023-04-27T04:43:32;100672.41;;;22.91;37.38
63819;BME280;49970;54.976;73.248;2023-04-27T04:46:02;100673.38;;;22.98;37.74
63819;BME280;49970;54.976;73.248;2023-04-27T04:48:29;100675.19;;;23.05;37.88
63819;BME280;49970;54.976;73.248;2023-04-27T04:50:55;100669.22;;;23.10;37.48
63819;BME280;49970;54.976;73.248;2023-04-27T04:53:22;100668.53;;;23.16;36.96
63819;BME280;49970;54.976;73.248;2023-04-27T04:55:48;100671.88;;;23.18;37.01
63819;BME280;49970;54.976;73.248;2023-04-27T04:58:15;100668.03;;;23.13;36.96
63819;BME280;49970;54.976;73.248;2023-04-27T05:00:41;100661.31;;;23.08;37.38
63819;BME280;49970;54.976;73.248;2023-04-27T05:03:17;100658.41;;;23.10;37.61
63819;BME280;49970;54.976;73.248;2023-04-27T05:06:08;100648.94;;;23.14;37.65
63819;BME280;49970;54.976;73.248;2023-04-27T05:08:35;100651.09;;;23.19;36.80
63819;BME280;49970;54.976;73.248;2023-04-27T05:11:02;100655.66;;;23.18;37.41
63819;BME280;49970;54.976;73.248;2023-04-27T05:13:29;100664.13;;;23.15;37.20
63819;BME280;49970;54.976;73.248;2023-04-27T05:16:04;100664.13;;;23.15;37.58
63819;BME280;49970;54.976;73.248;2023-04-27T05:18:31;100653.16;;;23.17;37.82
63819;BME280;49970;54.976;73.248;2023-04-27T05:20:58;100650.72;;;23.22;37.50
63819;BME280;49970;54.976;73.248;2023-04-27T05:23:29;100649.97;;;23.28;37.45
63819;BME280;49970;54.976;73.248;2023-04-27T05:25:55;100655.84;;;23.31;37.05
63819;BME280;49970;54.976;73.248;2023-04-27T05:28:21;100644.88;;;23.33;37.30
63819;BME280;49970;54.976;73.248;2023-04-27T05:30:47;100639.41;;;23.41;37.65
63819;BME280;49970;54.976;73.248;2023-04-27T05:33:17;100635.38;;;23.52;37.15
63819;BME280;49970;54.976;73.248;2023-04-27T05:35:43;100626.63;;;23.65;36.98
63819;BME280;49970;54.976;73.248;2023-04-27T05:38:09;100624.78;;;23.80;36.80
63819;BME280;49970;54.976;73.248;2023-04-27T05:40:35;100603.22;;;23.86;36.92
63819;BME280;49970;54.976;73.248;2023-04-27T05:43:02;100618.50;;;23.94;36.36
63819;BME280;49970;54.976;73.248;2023-04-27T05:45:30;100623.91;;;23.94;36.08
63819;BME280;49970;54.976;73.248;2023-04-27T05:47:56;100621.53;;;23.84;36.01
63819;BME280;49970;54.976;73.248;2023-04-27T05:50:27;100621.34;;;23.71;35.31
63819;BME280;49970;54.976;73.248;2023-04-27T05:52:54;100611.72;;;23.69;35.78
63819;BME280;49970;54.976;73.248;2023-04-27T05:55:20;100604.09;;;23.72;35.82
63819;BME280;49970;54.976;73.248;2023-04-27T05:57:46;100595.41;;;23.77;35.55
63819;BME280;49970;54.976;73.248;2023-04-27T06:00:13;100602.94;;;23.81;35.73
63819;BME280;49970;54.976;73.248;2023-04-27T06:02:45;100603.50;;;23.92;35.41
63819;BME280;49970;54.976;73.248;2023-04-27T06:05:11;100603.56;;;23.98;35.43
63819;BME280;49970;54.976;73.248;2023-04-27T06:07:42;100602.84;;;24.04;34.95
63819;BME280;49970;54.976;73.248;2023-04-27T06:10:10;100597.22;;;24.06;35.03
63819;BME280;49970;54.976;73.248;2023-04-27T06:12:41;100586.66;;;24.11;35.15
63819;BME280;49970;54.976;73.248;2023-04-27T06:15:13;100592.38;;;24.16;35.20
63819;BME280;49970;54.976;73.248;2023-04-27T06:17:39;100584.25;;;24.16;35.17
63819;BME280;49970;54.976;73.248;2023-04-27T06:20:08;100587.50;;;24.11;34.73
63819;BME280;49970;54.976;73.248;2023-04-27T06:22:35;100566.25;;;24.08;34.76
63819;BME280;49970;54.976;73.248;2023-04-27T06:25:09;100564.72;;;24.21;34.89
63819;BME280;49970;54.976;73.248;2023-04-27T06:27:35;100570.00;;;24.29;35.01
63819;BME280;49970;54.976;73.248;2023-04-27T06:30:01;100562.63;;;24.38;34.57
63819;BME280;49970;54.976;73.248;2023-04-27T06:32:28;100568.47;;;24.41;34.58
63819;BME280;49970;54.976;73.248;2023-04-27T06:34:54;100546.69;;;24.49;34.72
63819;BME280;49970;54.976;73.248;2023-04-27T06:37:20;100545.91;;;24.55;34.55
63819;BME280;49970;54.976;73.248;2023-04-27T06:39:46;100544.88;;;24.56;33.87
63819;BME280;49970;54.976;73.248;2023-04-27T06:42:13;100556.09;;;24.53;34.13
63819;BME280;49970;54.976;73.248;2023-04-27T06:44:39;100548.44;;;24.57;33.43
63819;BME280;49970;54.976;73.248;2023-04-27T06:47:16;100545.34;;;24.60;33.61
63819;BME280;49970;54.976;73.248;2023-04-27T06:49:42;100535.19;;;24.69;33.61
63819;BME280;49970;54.976;73.248;2023-04-27T06:52:08;100534.59;;;24.73;33.38
63819;BME280;49970;54.976;73.248;2023-04-27T06:54:39;100531.06;;;24.73;32.90
63819;BME280;49970;54.976;73.248;2023-04-27T06:57:06;100528.59;;;24.78;32.96
63819;BME280;49970;54.976;73.248;2023-04-27T07:00:03;100517.44;;;24.88;33.29
63819;BME280;49970;54.976;73.248;2023-04-27T07:03:27;100533.34;;;24.97;33.35
63819;BME280;49970;54.976;73.248;2023-04-27T07:05:53;100519.41;;;25.00;32.90
63819;BME280;49970;54.976;73.248;2023-04-27T07:08:21;100512.56;;;25.04;32.77
63819;BME280;49970;54.976;73.248;2023-04-27T07:10:47;100505.31;;;25.12;32.70
63819;BME280;49970;54.976;73.248;2023-04-27T07:13:14;100495.56;;;25.17;32.43
63819;BME280;49970;54.976;73.248;2023-04-27T07:15:40;100509.28;;;25.16;32.30
63819;BME280;49970;54.976;73.248;2023-04-27T07:23:10;100493.75;;;25.03;32.77
63819;BME280;49970;54.976;73.248;2023-04-27T07:27:01;100486.88;;;25.00;32.21
63819;BME280;49970;54.976;73.248;2023-04-27T07:30:52;100475.84;;;25.02;32.67
63819;BME280;49970;54.976;73.248;2023-04-27T07:34:42;100467.50;;;25.03;32.47
63819;BME280;49970;54.976;73.248;2023-04-27T07:38:33;100473.34;;;25.07;32.58
63819;BME280;49970;54.976;73.248;2023-04-27T07:42:30;100464.38;;;25.06;32.35
63819;BME280;49970;54.976;73.248;2023-04-27T07:46:21;100456.25;;;25.06;32.69
63819;BME280;49970;54.976;73.248;2023-04-27T07:50:12;100461.84;;;24.98;32.27
63819;BME280;49970;54.976;73.248;2023-04-27T07:53:43;100460.16;;;24.97;32.13
63819;BME280;49970;54.976;73.248;2023-04-27T07:56:31;100468.75;;;25.01;31.78
63819;BME280;49970;54.976;73.248;2023-04-27T07:59:13;100472.16;;;25.09;31.74
63819;BME280;49970;54.976;73.248;2023-04-27T08:02:00;100464.47;;;25.13;32.12
63819;BME280;49970;54.976;73.248;2023-04-27T08:05:31;100464.69;;;25.18;32.23
63819;BME280;49970;54.976;73.248;2023-04-27T08:08:07;100459.72;;;25.22;32.33
63819;BME280;49970;54.976;73.248;2023-04-27T08:10:33;100447.44;;;25.26;32.57
63819;BME280;49970;54.976;73.248;2023-04-27T08:13:00;100434.72;;;25.33;32.46
63819;BME280;49970;54.976;73.248;2023-04-27T08:15:26;100443.28;;;25.37;31.99
63819;BME280;49970;54.976;73.248;2023-04-27T08:17:52;100431.22;;;25.39;31.81
63819;BME280;49970;54.976;73.248;2023-04-27T08:20:19;100432.88;;;25.40;31.79
63819;BME280;49970;54.976;73.248;2023-04-27T08:22:56;100420.16;;;25.41;31.76
63819;BME280;49970;54.976;73.248;2023-04-27T08:25:22;100434.31;;;25.29;32.04
63819;BME280;49970;54.976;73.248;2023-04-27T08:27:48;100423.81;;;25.13;32.21
63819;BME280;49970;54.976;73.248;2023-04-27T08:30:14;100424.97;;;25.04;32.47
63819;BME280;49970;54.976;73.248;2023-04-27T08:32:41;100429.84;;;25.08;32.89
63819;BME280;49970;54.976;73.248;2023-04-27T08:35:07;100421.28;;;25.12;32.94
63819;BME280;49970;54.976;73.248;2023-04-27T08:37:34;100420.88;;;25.15;32.88
63819;BME280;49970;54.976;73.248;2023-04-27T08:40:02;100403.34;;;25.11;32.66
63819;BME280;49970;54.976;73.248;2023-04-27T08:42:28;100409.22;;;25.14;32.40
63819;BME280;49970;54.976;73.248;2023-04-27T08:45:01;100404.66;;;25.21;32.44
63819;BME280;49970;54.976;73.248;2023-04-27T08:47:38;100406.34;;;25.29;32.05
63819;BME280;49970;54.976;73.248;2023-04-27T08:50:05;100395.75;;;25.34;32.02
63819;BME280;49970;54.976;73.248;2023-04-27T08:52:47;100389.88;;;25.37;32.31
63819;BME280;49970;54.976;73.248;2023-04-27T08:55:13;100388.25;;;25.43;32.27
63819;BME280;49970;54.976;73.248;2023-04-27T08:57:40;100381.78;;;25.44;32.18
63819;BME280;49970;54.976;73.248;2023-04-27T09:00:07;100387.22;;;25.44;31.79
63819;BME280;49970;54.976;73.248;2023-04-27T09:02:45;100385.72;;;25.41;32.36
63819;BME280;49970;54.976;73.248;2023-04-27T09:05:15;100385.94;;;25.40;32.03
63819;BME280;49970;54.976;73.248;2023-04-27T09:07:55;100377.41;;;25.43;31.61
63819;BME280;49970;54.976;73.248;2023-04-27T09:10:21;100381.78;;;25.44;31.66
63819;BME280;49970;54.976;73.248;2023-04-27T09:12:58;100365.50;;;25.44;31.62
63819;BME280;49970;54.976;73.248;2023-04-27T09:15:27;100365.50;;;25.44;31.27
63819;BME280;49970;54.976;73.248;2023-04-27T09:17:56;100354.88;;;25.42;31.62
63819;BME280;49970;54.976;73.248;2023-04-27T09:20:23;100347.19;;;25.46;31.85
63819;BME280;49970;54.976;73.248;2023-04-27T09:22:52;100361.13;;;25.43;31.74
63819;BME280;49970;54.976;73.248;2023-04-27T09:25:30;100349.84;;;25.39;31.82
63819;BME280;49970;54.976;73.248;2023-04-27T09:27:58;100347.56;;;25.36;31.89
63819;BME280;49970;54.976;73.248;2023-04-27T09:30:25;100333.38;;;25.34;31.12
63819;BME280;49970;54.976;73.248;2023-04-27T09:32:59;100338.97;;;25.32;30.67
63819;BME280;49970;54.976;73.248;2023-04-27T09:35:30;100322.09;;;25.30;30.38
63819;BME280;49970;54.976;73.248;2023-04-27T09:38:02;100335.84;;;25.29;30.58
63819;BME280;49970;54.976;73.248;2023-04-27T09:40:29;100325.66;;;25.31;30.77
63819;BME280;49970;54.976;73.248;2023-04-27T09:42:59;100319.78;;;25.27;30.89
63819;BME280;49970;54.976;73.248;2023-04-27T09:45:28;100315.84;;;25.30;31.14
63819;BME280;49970;54.976;73.248;2023-04-27T09:47:54;100305.22;;;25.35;30.18
63819;BME280;49970;54.976;73.248;2023-04-27T09:50:21;100320.03;;;25.39;30.35
63819;BME280;49970;54.976;73.248;2023-04-27T09:52:57;100324.63;;;25.45;30.63
63819;BME280;49970;54.976;73.248;2023-04-27T09:55:27;100315.03;;;25.43;30.48
63819;BME280;49970;54.976;73.248;2023-04-27T10:03:22;100331.75;;;25.46;29.79
63819;BME280;49970;54.976;73.248;2023-04-27T10:09:04;100304.19;;;25.43;29.92
63819;BME280;49970;54.976;73.248;2023-04-27T10:11:39;100303.53;;;25.41;29.73
63819;BME280;49970;54.976;73.248;2023-04-27T10:14:07;100300.00;;;25.40;30.08
63819;BME280;49970;54.976;73.248;2023-04-27T10:16:56;100297.28;;;25.40;30.38
63819;BME280;49970;54.976;73.248;2023-04-27T10:19:23;100283.13;;;25.38;30.13
63819;BME280;49970;54.976;73.248;2023-04-27T10:21:55;100294.19;;;25.43;30.35
63819;BME280;49970;54.976;73.248;2023-04-27T10:24:38;100288.53;;;25.45;30.75
63819;BME280;49970;54.976;73.248;2023-04-27T10:27:09;100291.25;;;25.45;30.76
63819;BME280;49970;54.976;73.248;2023-04-27T10:29:47;100303.56;;;25.47;30.67
63819;BME280;49970;54.976;73.248;2023-04-27T10:32:23;100289.19;;;25.47;30.71
63819;BME280;49970;54.976;73.248;2023-04-27T10:34:51;100292.28;;;25.44;30.85
63819;BME280;49970;54.976;73.248;2023-04-27T10:37:37;100288.34;;;25.46;30.98
63819;BME280;49970;54.976;73.248;2023-04-27T10:40:11;100281.22;;;25.45;30.96
63819;BME280;49970;54.976;73.248;2023-04-27T10:43:09;100278.31;;;25.40;31.28
63819;BME280;49970;54.976;73.248;2023-04-27T10:46:51;100272.06;;;25.40;30.97
63819;BME280;49970;54.976;73.248;2023-04-27T10:49:17;100265.41;;;25.42;30.88
63819;BME280;49970;54.976;73.248;2023-04-27T10:51:44;100274.97;;;25.45;30.78
63819;BME280;49970;54.976;73.248;2023-04-27T10:54:12;100253.50;;;25.43;30.71
63819;BME280;49970;54.976;73.248;2023-04-27T10:56:40;100258.69;;;25.45;30.82
63819;BME280;49970;54.976;73.248;2023-04-27T10:59:06;100247.03;;;25.44;30.42
63819;BME280;49970;54.976;73.248;2023-04-27T11:01:33;100245.38;;;25.43;30.57
63819;BME280;49970;54.976;73.248;2023-04-27T11:04:15;100235.16;;;25.39;30.34
63819;BME280;49970;54.976;73.248;2023-04-27T11:06:43;100237.22;;;25.30;30.53
63819;BME280;49970;54.976;73.248;2023-04-27T11:09:10;100244.28;;;25.24;29.99
63819;BME280;49970;54.976;73.248;2023-04-27T11:11:37;100251.59;;;25.24;30.06
63819;BME280;49970;54.976;73.248;2023-04-27T11:14:03;100246.38;;;25.22;30.42
63819;BME280;49970;54.976;73.248;2023-04-27T11:16:45;100242.84;;;25.22;29.82
63819;BME280;49970;54.976;73.248;2023-04-27T11:19:21;100244.06;;;25.19;29.84
63819;BME280;49970;54.976;73.248;2023-04-27T11:21:47;100260.56;;;25.18;30.02
63819;BME280;49970;54.976;73.248;2023-04-27T11:24:13;100258.25;;;25.15;30.00
63819;BME280;49970;54.976;73.248;2023-04-27T11:26:39;100264.91;;;25.12;30.07
63819;BME280;49970;54.976;73.248;2023-04-27T11:29:08;100248.03;;;25.10;30.36
63819;BME280;49970;54.976;73.248;2023-04-27T11:31:46;100249.50;;;25.13;30.11
63819;BME280;49970;54.976;73.248;2023-04-27T11:34:19;100243.66;;;25.09;30.30
63819;BME280;49970;54.976;73.248;2023-04-27T11:37:05;100244.03;;;25.06;30.18
63819;BME280;49970;54.976;73.248;2023-04-27T11:39:36;100240.88;;;25.02;30.16
63819;BME280;49970;54.976;73.248;2023-04-27T11:42:22;100238.19;;;24.96;30.23
63819;BME280;49970;54.976;73.248;2023-04-27T11:45:01;100226.69;;;24.94;30.64
63819;BME280;49970;54.976;73.248;2023-04-27T11:47:31;100220.66;;;24.92;30.72
63819;BME280;49970;54.976;73.248;2023-04-27T11:50:00;100223.56;;;24.90;30.90
63819;BME280;49970;54.976;73.248;2023-04-27T11:52:35;100223.38;;;24.92;31.21
63819;BME280;49970;54.976;73.248;2023-04-27T11:55:03;100214.38;;;24.91;30.97
63819;BME280;49970;54.976;73.248;2023-04-27T11:57:34;100207.13;;;24.92;30.90
63819;BME280;49970;54.976;73.248;2023-04-27T12:00:11;100210.00;;;24.90;31.06
63819;BME280;49970;54.976;73.248;2023-04-27T12:02:39;100206.69;;;24.88;31.02
63819;BME280;49970;54.976;73.248;2023-04-27T12:05:08;100206.03;;;24.86;31.04
63819;BME280;49970;54.976;73.248;2023-04-27T12:07:34;100203.94;;;24.81;31.32
63819;BME280;49970;54.976;73.248;2023-04-27T12:10:01;100193.72;;;24.77;31.36
63819;BME280;49970;54.976;73.248;2023-04-27T12:12:27;100205.59;;;24.76;31.84
63819;BME280;49970;54.976;73.248;2023-04-27T12:14:53;100193.09;;;24.75;31.60
63819;BME280;49970;54.976;73.248;2023-04-27T12:17:20;100193.94;;;24.75;31.60
63819;BME280;49970;54.976;73.248;2023-04-27T12:19:46;100182.06;;;24.76;31.23
63819;BME280;49970;54.976;73.248;2023-04-27T12:22:17;100187.47;;;24.76;31.60
63819;BME280;49970;54.976;73.248;2023-04-27T12:24:49;100175.59;;;24.77;31.41
63819;BME280;49970;54.976;73.248;2023-04-27T12:27:20;100177.69;;;24.75;31.47
63819;BME280;49970;54.976;73.248;2023-04-27T12:29:46;100175.16;;;24.74;31.46
63819;BME280;49970;54.976;73.248;2023-04-27T12:32:13;100170.78;;;24.73;31.50
63819;BME280;49970;54.976;73.248;2023-04-27T12:34:39;100171.84;;;24.72;31.71
63819;BME280;49970;54.976;73.248;2023-04-27T12:37:06;100158.47;;;24.70;31.75
63819;BME280;49970;54.976;73.248;2023-04-27T12:39:32;100160.34;;;24.70;31.51
63819;BME280;49970;54.976;73.248;2023-04-27T12:42:06;100172.03;;;24.70;31.65
63819;BME280;49970;54.976;73.248;2023-04-27T12:44:43;100162.44;;;24.68;31.77
63819;BME280;49970;54.976;73.248;2023-04-27T12:47:09;100165.56;;;24.65;31.87
63819;BME280;49970;54.976;73.248;2023-04-27T12:49:35;100159.72;;;24.61;31.50
63819;BME280;49970;54.976;73.248;2023-04-27T12:52:02;100144.09;;;24.56;31.75
63819;BME280;49970;54.976;73.248;2023-04-27T12:54:36;100152.81;;;24.52;31.41
63819;BME280;49970;54.976;73.248;2023-04-27T12:57:12;100151.56;;;24.48;31.72
63819;BME280;49970;54.976;73.248;2023-04-27T12:59:43;100151.97;;;24.45;31.74
63819;BME280;49970;54.976;73.248;2023-04-27T13:02:10;100163.00;;;24.43;31.65
63819;BME280;49970;54.976;73.248;2023-04-27T13:04:40;100152.56;;;24.40;31.93
63819;BME280;49970;54.976;73.248;2023-04-27T13:07:06;100156.31;;;24.39;31.91
63819;BME280;49970;54.976;73.248;2023-04-27T13:09:33;100156.53;;;24.38;31.97
63819;BME280;49970;54.976;73.248;2023-04-27T13:12:01;100152.31;;;24.35;31.92
63819;BME280;49970;54.976;73.248;2023-04-27T13:14:27;100154.41;;;24.33;31.96
63819;BME280;49970;54.976;73.248;2023-04-27T13:16:53;100151.06;;;24.31;31.96
63819;BME280;49970;54.976;73.248;2023-04-27T13:19:20;100153.31;;;24.27;31.91